Aeroporto :
LOGIN :

Iscrizione | Disclaimer

   EN    FR    IT 

 










Sommario :    VFR   VFR Marginale   IFR   IFR Intensivo   IFR Molto Intensivo
Visibilità : 
Base nubi : 
>= 8 km
>= 3000ft
5 / 8 km
1000 / 3000 ft
1500m / 5 km
500 / 1000 ft
800 / 1500m
200 / 500 ft
< 800m
< 200 ft
Simboli :   Temporali  Nebbia  Neve Forte  Precipitazioni Forti  Vento > 20 kt
SIGMETs :   Varie  Temporali  Ghiacco  Turbolenza  Onda orograficha  Ceneri Vulcaniche






- Altitudine del aeroporto : 106 ft
- Codice IATA : NRN


EDLV - Weeze

ULTIMO METAR :
  • 061750Z VRB03KT CAVOK 31/09 Q1018

METARs OBSOLETI :
  • 061720Z 16005KT 130V190 CAVOK 31/09 Q1018
  • 061650Z VRB04KT CAVOK 31/09 Q1018
  • 061620Z VRB03KT CAVOK 32/09 Q1018
  • 061550Z 12004KT 070V200 CAVOK 32/10 Q1018
  • 061520Z VRB04KT CAVOK 32/09 Q1019

TAF TAF EDLV
Valido dal 06 a 18 ore il 07 a 18 ore UTC


061700Z 0618/0718 VRB02KT CAVOK
TEMPO 0708/0715 10005KT



MetMap, La meteo Aeronautica in un colpo d'occhio ! - Copyright ORBIFLY Dicembre 2007 - Disclaimer

ORBIFLY MET'MAP TEAM :

Programmazione e sviluppo : Alexandra Zaïnal
Concezione : Baudouin d'Aumeries
Aiuto per la programmazione : Marc-Olivier Méhu
Supporto tecnico e logistico : Manuel Goepfert
Aiuto per la traduzione : Arnaldo La Scala

Contatto : metmap@orbifly.com




FONTI E CREDITI :

   NOAA